Time;durP1;ratioP1;P1;durP2;ratioP2;P2;SDS_P1;SDS_P2;PMS_P1;PMS_P2;Temp;Humidity;BMP_temperature;BMP_pressure;BME280_temperature;BME280_humidity;BME280_pressure;Samples;Min_cycle;Max_cycle;Signal;HPM_P1;HPM_P2
2023/11/30 00:02:02;;;;;;;56.38;19.90;;;-1.00;99.90;;;;;;5032161;28;20032;-65
2023/11/30 00:04:27;;;;;;;57.20;18.75;;;-1.10;99.90;;;;;;5042212;28;20500;-66
2023/11/30 00:06:53;;;;;;;57.80;20.92;;;-1.10;99.90;;;;;;5045397;28;20056;-66
2023/11/30 00:09:19;;;;;;;53.47;19.17;;;-1.00;99.90;;;;;;5044504;28;20388;-70
2023/11/30 00:11:44;;;;;;;55.83;19.67;;;-1.00;99.90;;;;;;5046825;28;20386;-70
2023/11/30 00:14:10;;;;;;;59.53;20.88;;;-0.90;99.90;;;;;;5046850;28;20025;-70
2023/11/30 00:16:36;;;;;;;56.85;18.08;;;-0.90;99.90;;;;;;5047599;28;20434;-71
2023/11/30 00:19:01;;;;;;;61.05;20.63;;;-0.90;99.90;;;;;;5042231;28;20028;-71
2023/11/30 00:21:27;;;;;;;54.00;19.38;;;-0.80;99.90;;;;;;5044126;28;20024;-71
2023/11/30 00:23:53;;;;;;;59.17;20.23;;;-0.80;99.90;;;;;;5044813;28;20052;-71
2023/11/30 00:26:18;;;;;;;61.67;21.35;;;-0.80;99.90;;;;;;5045720;28;20297;-71
2023/11/30 00:28:46;;;;;;;54.38;20.30;;;-0.80;99.90;;;;;;5046670;28;20060;-71
2023/11/30 00:31:12;;;;;;;58.22;20.75;;;-0.80;99.90;;;;;;5038409;28;20036;-71
2023/11/30 00:33:37;;;;;;;56.22;20.08;;;-0.80;99.90;;;;;;5043661;28;20112;-69
2023/11/30 00:36:06;;;;;;;56.92;20.52;;;-0.80;99.90;;;;;;5041924;28;20032;-69
2023/11/30 00:38:32;;;;;;;57.17;21.73;;;-0.80;99.90;;;;;;5041275;28;21097;-69
2023/11/30 00:40:57;;;;;;;57.05;20.88;;;-0.80;99.90;;;;;;5039695;28;20100;-69
2023/11/30 00:43:23;;;;;;;59.78;20.83;;;-0.80;99.90;;;;;;5042866;28;20087;-69
2023/11/30 00:45:51;;;;;;;66.13;21.90;;;-0.80;99.90;;;;;;5045998;28;20486;-69
2023/11/30 00:48:16;;;;;;;55.20;20.05;;;-0.90;99.90;;;;;;5049633;28;20313;-69
2023/11/30 00:50:42;;;;;;;59.22;20.23;;;-1.00;99.90;;;;;;5043787;28;20113;-69
2023/11/30 00:53:07;;;;;;;60.42;19.20;;;-1.00;99.90;;;;;;5041225;28;20041;-69
2023/11/30 00:55:33;;;;;;;64.18;21.55;;;-1.00;99.90;;;;;;5044394;28;20439;-69
2023/11/30 00:58:01;;;;;;;61.30;21.13;;;-0.90;99.90;;;;;;5043431;28;20052;-70
2023/11/30 01:00:27;;;;;;;59.47;20.75;;;-0.80;99.90;;;;;;5040894;28;20033;-71
2023/11/30 01:02:55;;;;;;;53.40;18.75;;;-0.70;99.90;;;;;;5045456;28;20936;-71
2023/11/30 01:05:21;;;;;;;52.10;17.10;;;-0.70;99.90;;;;;;5042773;28;20128;-71
2023/11/30 01:07:46;;;;;;;54.53;21.25;;;-0.60;99.90;;;;;;5046501;28;20439;-71
2023/11/30 01:10:12;;;;;;;56.08;19.58;;;-0.60;99.90;;;;;;5041184;28;20021;-71
2023/11/30 01:12:37;;;;;;;63.17;19.52;;;-0.60;99.90;;;;;;5043442;28;20139;-71
2023/11/30 01:15:04;;;;;;;57.35;19.92;;;-0.60;99.90;;;;;;5045397;28;20033;-71
2023/11/30 01:17:29;;;;;;;56.22;19.50;;;-0.70;99.90;;;;;;5047022;28;20101;-71
2023/11/30 01:19:55;;;;;;;55.25;18.77;;;-0.70;99.90;;;;;;5044297;28;20291;-68
2023/11/30 01:22:20;;;;;;;52.10;19.10;;;-0.60;99.90;;;;;;5046253;28;20020;-69
2023/11/30 01:24:46;;;;;;;45.95;17.85;;;-0.60;99.90;;;;;;5041393;28;20391;-69
2023/11/30 01:27:12;;;;;;;46.80;15.35;;;-0.50;99.90;;;;;;5040381;28;20036;-69
2023/11/30 01:29:38;;;;;;;54.83;18.98;;;-0.50;99.90;;;;;;5042685;28;20052;-69
2023/11/30 01:32:04;;;;;;;44.63;16.85;;;-0.50;99.90;;;;;;5044630;28;20055;-69
2023/11/30 01:34:29;;;;;;;55.92;18.83;;;-0.50;99.90;;;;;;5044836;28;20024;-69
2023/11/30 01:36:55;;;;;;;53.58;17.63;;;-0.60;99.90;;;;;;5045230;28;20079;-69
2023/11/30 01:39:20;;;;;;;55.05;18.02;;;-0.60;99.90;;;;;;5046015;28;20108;-69
2023/11/30 01:41:46;;;;;;;52.78;18.80;;;-0.70;99.90;;;;;;5043428;28;20078;-69
2023/11/30 01:44:11;;;;;;;59.33;20.17;;;-0.70;99.90;;;;;;5040379;28;20081;-69
2023/11/30 01:46:37;;;;;;;60.92;18.80;;;-0.90;99.90;;;;;;5046459;28;20017;-67
2023/11/30 01:49:07;;;;;;;60.22;19.08;;;-1.00;99.90;;;;;;5043675;28;20055;-67
2023/11/30 01:51:35;;;;;;;65.72;20.60;;;-1.10;99.90;;;;;;5044969;28;20407;-67
2023/11/30 01:54:02;;;;;;;57.25;18.13;;;-1.10;99.90;;;;;;5039229;28;20028;-67
2023/11/30 01:56:29;;;;;;;51.92;18.13;;;-1.10;99.90;;;;;;5046754;28;20115;-67
2023/11/30 01:58:56;;;;;;;67.80;20.13;;;-1.20;99.90;;;;;;5044554;28;20500;-70
2023/11/30 02:01:26;;;;;;;60.00;19.27;;;-1.20;99.90;;;;;;5036444;28;20496;-69
2023/11/30 02:03:52;;;;;;;62.47;20.17;;;-1.10;99.90;;;;;;5041613;28;20513;-69
2023/11/30 02:06:19;;;;;;;50.90;16.52;;;-1.10;99.90;;;;;;5042579;28;20271;-69
2023/11/30 02:08:48;;;;;;;59.38;18.80;;;-1.10;99.90;;;;;;5045437;28;20017;-69
2023/11/30 02:11:14;;;;;;;67.70;20.17;;;-0.90;99.90;;;;;;5043893;28;20041;-70
2023/11/30 02:13:39;;;;;;;75.15;19.98;;;-0.90;99.90;;;;;;5042793;28;20021;-68
2023/11/30 02:16:05;;;;;;;67.03;18.48;;;-0.90;99.90;;;;;;5041043;28;20025;-68
2023/11/30 02:18:31;;;;;;;63.40;16.50;;;-0.90;99.90;;;;;;5041266;28;20432;-68
2023/11/30 02:20:56;;;;;;;48.85;14.85;;;-0.90;99.90;;;;;;5040457;28;20034;-67
2023/11/30 02:23:22;;;;;;;74.07;20.90;;;-0.80;99.90;;;;;;5039388;28;20388;-69
2023/11/30 02:25:48;;;;;;;70.38;22.73;;;-0.90;99.90;;;;;;5045037;28;20115;-68
2023/11/30 02:28:17;;;;;;;69.78;21.48;;;-0.90;99.90;;;;;;5043371;28;20033;-68
2023/11/30 02:30:46;;;;;;;73.43;20.88;;;-0.90;99.90;;;;;;5038375;28;20580;-70
2023/11/30 02:33:12;;;;;;;69.47;20.88;;;-0.90;99.90;;;;;;5040276;28;20658;-70
2023/11/30 02:35:37;;;;;;;74.10;20.80;;;-0.90;99.90;;;;;;5043566;28;20234;-70
2023/11/30 02:38:03;;;;;;;66.18;20.05;;;-0.90;99.90;;;;;;5044109;28;20376;-70
2023/11/30 02:40:29;;;;;;;71.65;21.48;;;-0.90;99.90;;;;;;5044407;28;20029;-70
2023/11/30 02:42:54;;;;;;;74.30;21.77;;;-0.90;99.90;;;;;;5040618;28;20036;-70
2023/11/30 02:45:20;;;;;;;62.45;19.60;;;-1.00;99.90;;;;;;5044685;28;20502;-70
2023/11/30 02:47:45;;;;;;;71.47;21.92;;;-1.20;99.90;;;;;;5044741;28;20025;-70
2023/11/30 02:50:11;;;;;;;65.97;20.40;;;-1.30;99.90;;;;;;5042686;28;20060;-70
2023/11/30 02:52:36;;;;;;;59.10;19.70;;;-1.40;99.90;;;;;;5041634;28;20498;-70
2023/11/30 02:55:02;;;;;;;58.75;19.38;;;-1.50;99.90;;;;;;5043777;28;20079;-70
2023/11/30 02:57:28;;;;;;;66.82;19.92;;;-1.50;99.90;;;;;;5044530;28;20142;-70
2023/11/30 02:59:53;;;;;;;61.90;20.08;;;-1.60;99.90;;;;;;5043306;28;20021;-70
2023/11/30 03:02:19;;;;;;;65.00;19.80;;;-1.70;99.90;;;;;;5045058;28;20104;-68
2023/11/30 03:04:45;;;;;;;63.88;19.00;;;-1.80;99.90;;;;;;5045822;28;20108;-69
2023/11/30 03:07:10;;;;;;;59.00;20.40;;;-1.90;99.90;;;;;;5043681;28;20021;-70
2023/11/30 03:09:36;;;;;;;65.10;21.50;;;-1.90;99.90;;;;;;5045677;28;20505;-70
2023/11/30 03:12:02;;;;;;;66.53;20.27;;;-1.90;99.90;;;;;;5047274;28;20143;-70
2023/11/30 03:14:27;;;;;;;74.15;21.17;;;-1.90;99.90;;;;;;5048032;28;20035;-70
2023/11/30 03:16:53;;;;;;;60.45;20.88;;;-2.00;99.90;;;;;;5046370;28;20100;-70
2023/11/30 03:19:19;;;;;;;73.15;22.17;;;-2.00;99.90;;;;;;5047218;28;20226;-70
2023/11/30 03:21:47;;;;;;;74.55;20.08;;;-1.90;99.90;;;;;;5047879;28;20027;-70
2023/11/30 03:24:12;;;;;;;69.88;20.90;;;-1.80;99.90;;;;;;5043282;28;20357;-70
2023/11/30 03:26:38;;;;;;;68.82;21.25;;;-1.90;99.90;;;;;;5046993;28;20036;-70
2023/11/30 03:29:04;;;;;;;70.97;20.77;;;-1.90;99.90;;;;;;5047205;28;20087;-70
2023/11/30 03:31:29;;;;;;;69.95;21.17;;;-1.80;99.90;;;;;;5045677;28;20071;-70
2023/11/30 03:33:55;;;;;;;68.32;21.13;;;-1.80;99.90;;;;;;5047632;28;20369;-70
2023/11/30 03:36:20;;;;;;;72.03;19.25;;;-1.60;99.90;;;;;;5043869;28;20030;-70
2023/11/30 03:38:46;;;;;;;70.18;21.42;;;-1.60;99.90;;;;;;5045821;28;20063;-67
2023/11/30 03:41:17;;;;;;;69.68;21.77;;;-1.50;99.90;;;;;;5043010;28;20017;-67
2023/11/30 03:43:42;;;;;;;70.82;21.23;;;-1.40;99.90;;;;;;5047153;28;20030;-68
2023/11/30 03:46:08;;;;;;;71.20;19.55;;;-1.50;99.90;;;;;;5047794;28;20403;-67
2023/11/30 03:48:33;;;;;;;74.97;21.27;;;-1.50;99.90;;;;;;5050348;28;20025;-67
2023/11/30 03:50:59;;;;;;;64.30;21.05;;;-1.60;99.90;;;;;;5044108;28;20036;-68
2023/11/30 03:53:27;;;;;;;65.65;19.40;;;-1.70;99.90;;;;;;5044928;28;20440;-67
2023/11/30 03:55:52;;;;;;;67.15;19.90;;;-1.80;99.90;;;;;;5044076;28;20506;-67
2023/11/30 03:58:18;;;;;;;71.35;20.38;;;-1.90;99.90;;;;;;5044241;28;20045;-68
2023/11/30 04:00:43;;;;;;;64.03;20.65;;;-2.00;99.90;;;;;;5044593;28;20472;-67
2023/11/30 04:03:09;;;;;;;66.65;20.27;;;-2.10;99.90;;;;;;5046735;28;20104;-66
2023/11/30 04:05:35;;;;;;;60.08;19.05;;;-2.30;99.90;;;;;;5047075;28;20017;-67
2023/11/30 04:08:00;;;;;;;56.58;18.67;;;-2.40;99.90;;;;;;5047088;28;20137;-67
2023/11/30 04:10:26;;;;;;;57.65;19.30;;;-2.50;99.90;;;;;;5044593;28;20034;-68
2023/11/30 04:12:54;;;;;;;64.90;20.17;;;-2.40;99.90;;;;;;5044604;28;20507;-67
2023/11/30 04:15:20;;;;;;;59.47;20.45;;;-2.30;99.90;;;;;;5044118;28;20040;-67
2023/11/30 04:17:46;;;;;;;57.72;19.00;;;-2.20;99.90;;;;;;5048176;28;20021;-67
2023/11/30 04:20:11;;;;;;;52.17;18.60;;;-2.10;99.90;;;;;;5046527;28;20074;-67
2023/11/30 04:22:37;;;;;;;59.88;17.48;;;-2.10;99.90;;;;;;5044872;28;20025;-67
2023/11/30 04:25:03;;;;;;;55.17;18.58;;;-2.00;99.90;;;;;;5042907;28;20033;-67
2023/11/30 04:27:28;;;;;;;57.97;17.48;;;-2.00;99.90;;;;;;5040269;28;20052;-67
2023/11/30 04:29:54;;;;;;;57.28;17.80;;;-2.10;99.90;;;;;;5042449;28;20115;-67
2023/11/30 04:32:19;;;;;;;51.20;17.50;;;-2.10;99.90;;;;;;5046658;28;20482;-66
2023/11/30 04:34:45;;;;;;;54.15;18.73;;;-2.20;99.90;;;;;;5044120;28;20140;-67
2023/11/30 04:37:11;;;;;;;59.35;17.85;;;-2.20;99.90;;;;;;5047355;28;20028;-68
2023/11/30 04:39:37;;;;;;;54.20;18.10;;;-2.10;99.90;;;;;;5044161;28;20536;-68
2023/11/30 04:42:03;;;;;;;58.67;19.30;;;-2.10;99.90;;;;;;5042475;28;20027;-65
2023/11/30 04:44:29;;;;;;;60.17;18.92;;;-2.10;99.90;;;;;;5041779;28;20468;-67
2023/11/30 04:46:54;;;;;;;61.40;19.40;;;-2.10;99.90;;;;;;5044745;28;20013;-67
2023/11/30 04:49:20;;;;;;;56.05;19.52;;;-2.10;99.90;;;;;;5043642;28;20364;-66
2023/11/30 04:51:48;;;;;;;58.28;18.20;;;-2.10;99.90;;;;;;5046508;28;20047;-66
2023/11/30 04:54:13;;;;;;;53.00;17.70;;;-2.00;99.90;;;;;;5043142;28;20036;-64
2023/11/30 04:56:39;;;;;;;62.45;19.20;;;-2.10;99.90;;;;;;5046104;28;20123;-64
2023/11/30 04:59:05;;;;;;;55.40;18.30;;;-2.00;99.90;;;;;;5042962;28;20512;-65
2023/11/30 05:01:30;;;;;;;61.33;20.40;;;-1.90;99.90;;;;;;5038788;28;20103;-64
2023/11/30 05:03:57;;;;;;;60.92;19.20;;;-1.80;99.90;;;;;;5045019;28;20020;-64
2023/11/30 05:06:23;;;;;;;59.22;18.92;;;-1.70;99.90;;;;;;5046795;28;20074;-66
2023/11/30 05:08:48;;;;;;;56.75;18.90;;;-1.70;99.90;;;;;;5043300;28;20476;-67
2023/11/30 05:11:15;;;;;;;64.85;19.77;;;-1.70;99.90;;;;;;5045663;28;20104;-64
2023/11/30 05:13:40;;;;;;;59.53;20.13;;;-1.70;99.90;;;;;;5046102;28;20052;-66
2023/11/30 05:16:06;;;;;;;58.00;20.98;;;-1.70;99.90;;;;;;5046432;28;20026;-65
2023/11/30 05:18:32;;;;;;;67.45;20.55;;;-1.60;99.90;;;;;;5042006;28;20025;-65
2023/11/30 05:20:58;;;;;;;57.55;20.05;;;-1.50;99.90;;;;;;5042234;28;20498;-65
2023/11/30 05:23:24;;;;;;;52.50;18.90;;;-1.50;99.90;;;;;;5045676;28;20021;-65
2023/11/30 05:25:49;;;;;;;58.60;19.33;;;-1.40;99.90;;;;;;5045735;28;20033;-65
2023/11/30 05:28:18;;;;;;;57.70;19.30;;;-1.40;99.90;;;;;;5041018;28;20083;-65
2023/11/30 05:30:43;;;;;;;54.50;19.77;;;-1.30;99.90;;;;;;5034787;28;20088;-65
2023/11/30 05:33:09;;;;;;;50.42;19.55;;;-1.10;99.90;;;;;;5033473;28;20034;-65
2023/11/30 05:35:38;;;;;;;49.53;17.88;;;-1.10;99.90;;;;;;5038559;28;20314;-65
2023/11/30 05:38:04;;;;;;;54.85;18.77;;;-1.00;99.90;;;;;;5042294;28;20079;-65
2023/11/30 05:40:29;;;;;;;53.22;18.90;;;-1.00;99.90;;;;;;5029983;28;20484;-65
2023/11/30 05:42:55;;;;;;;49.30;17.67;;;-1.00;99.90;;;;;;5038614;28;20387;-65
2023/11/30 05:45:23;;;;;;;52.15;18.02;;;-1.00;99.90;;;;;;5031133;28;20547;-66
2023/11/30 05:47:48;;;;;;;52.60;17.77;;;-1.00;99.90;;;;;;5031388;28;20037;-65
2023/11/30 05:50:14;;;;;;;45.75;17.35;;;-1.10;99.90;;;;;;5030172;28;20480;-65
2023/11/30 05:52:40;;;;;;;49.80;18.25;;;-1.10;99.90;;;;;;5036516;28;20037;-65
2023/11/30 05:55:07;;;;;;;47.33;18.05;;;-1.10;99.90;;;;;;5035213;28;20017;-65
2023/11/30 05:57:33;;;;;;;51.83;18.73;;;-1.10;99.90;;;;;;5035832;28;20037;-65
2023/11/30 05:59:59;;;;;;;44.38;17.23;;;-1.20;99.90;;;;;;5029684;28;20068;-67
2023/11/30 06:02:26;;;;;;;41.05;16.95;;;-1.20;99.90;;;;;;5033899;28;20045;-67
2023/11/30 06:04:53;;;;;;;39.90;16.02;;;-1.30;99.90;;;;;;5036417;28;20426;-67
2023/11/30 06:07:20;;;;;;;48.92;17.27;;;-1.30;99.90;;;;;;5035429;28;20113;-67
2023/11/30 06:09:45;;;;;;;42.55;16.30;;;-1.30;99.90;;;;;;5035889;28;20108;-67
2023/11/30 06:12:11;;;;;;;43.38;17.25;;;-1.30;99.90;;;;;;5027691;28;20117;-67
2023/11/30 06:14:37;;;;;;;44.65;16.75;;;-1.30;99.90;;;;;;5030915;28;20023;-67
2023/11/30 06:17:03;;;;;;;45.78;16.52;;;-1.20;99.90;;;;;;5042736;28;20531;-66
2023/11/30 06:19:28;;;;;;;45.13;17.40;;;-1.20;99.90;;;;;;5027809;28;20083;-66
2023/11/30 06:21:54;;;;;;;49.42;17.77;;;-1.20;99.90;;;;;;5036672;28;20024;-66
2023/11/30 06:24:20;;;;;;;51.42;18.67;;;-1.20;99.90;;;;;;5030912;28;20504;-66
2023/11/30 06:26:45;;;;;;;43.25;17.13;;;-1.20;99.90;;;;;;5029982;28;20030;-66
2023/11/30 06:29:13;;;;;;;48.97;17.77;;;-1.20;99.90;;;;;;5041115;28;20049;-66
2023/11/30 06:31:39;;;;;;;45.58;18.38;;;-1.30;99.90;;;;;;5040589;28;20021;-66
2023/11/30 06:34:07;;;;;;;50.33;17.48;;;-1.30;99.90;;;;;;5034017;28;20388;-65
2023/11/30 06:36:33;;;;;;;49.97;18.23;;;;;;;;;;5032862;28;20029;-67
2023/11/30 06:38:58;;;;;;;44.72;15.93;;;-1.40;99.90;;;;;;5039002;28;20044;-67
2023/11/30 06:41:24;;;;;;;54.60;18.85;;;-1.50;99.90;;;;;;5036554;28;20380;-67
2023/11/30 06:43:50;;;;;;;46.20;17.10;;;-1.50;99.90;;;;;;5040408;28;20539;-67
2023/11/30 06:46:25;;;;;;;44.83;17.25;;;-1.60;99.90;;;;;;5040255;28;20109;-66
2023/11/30 06:48:51;;;;;;;49.10;16.92;;;-1.60;99.90;;;;;;5038919;28;20112;-66
2023/11/30 06:51:17;;;;;;;48.92;18.08;;;-1.60;99.90;;;;;;5036890;28;20112;-66
2023/11/30 06:53:43;;;;;;;44.55;17.75;;;-1.60;99.90;;;;;;5035978;28;20021;-66
2023/11/30 06:56:12;;;;;;;45.50;17.38;;;-1.60;99.90;;;;;;5033415;28;20131;-66
2023/11/30 06:58:38;;;;;;;41.58;17.10;;;-1.60;99.90;;;;;;5037925;28;20040;-66
2023/11/30 07:01:08;;;;;;;47.65;16.30;;;-1.60;99.90;;;;;;5041608;28;20029;-66
2023/11/30 07:03:34;;;;;;;46.40;16.98;;;-1.60;99.90;;;;;;5040306;28;20411;-66
2023/11/30 07:06:00;;;;;;;50.40;18.40;;;-1.60;99.90;;;;;;5046278;28;20100;-67
2023/11/30 07:08:25;;;;;;;50.28;17.02;;;-1.60;99.90;;;;;;5033708;28;20136;-66
2023/11/30 07:10:51;;;;;;;41.55;16.60;;;-1.60;99.90;;;;;;5033198;28;20030;-68
2023/11/30 07:13:17;;;;;;;53.13;19.25;;;-1.60;99.90;;;;;;5038830;28;20136;-67
2023/11/30 07:15:43;;;;;;;50.28;16.80;;;-1.60;99.90;;;;;;5033624;28;20516;-69
2023/11/30 07:18:11;;;;;;;50.80;19.60;;;-1.30;99.90;;;;;;5036309;28;20021;-67
2023/11/30 07:20:36;;;;;;;50.13;18.40;;;-1.60;99.90;;;;;;5036507;28;20025;-67
2023/11/30 07:23:04;;;;;;;49.70;18.13;;;-1.60;99.90;;;;;;5040873;28;20021;-67
2023/11/30 07:25:30;;;;;;;47.17;16.98;;;-1.50;99.90;;;;;;5039054;28;20364;-68
2023/11/30 07:27:56;;;;;;;46.88;16.90;;;-1.60;99.90;;;;;;5042558;28;20037;-67
2023/11/30 07:30:24;;;;;;;50.35;18.77;;;-1.60;99.90;;;;;;5038020;28;20057;-68
2023/11/30 07:32:55;;;;;;;60.30;20.73;;;-1.60;99.90;;;;;;5042125;28;20038;-68
2023/11/30 07:35:21;;;;;;;61.38;19.98;;;-1.50;99.90;;;;;;5041806;28;20506;-67
2023/11/30 07:37:46;;;;;;;64.07;19.83;;;-1.50;99.90;;;;;;5041797;28;20033;-68
2023/11/30 07:40:12;;;;;;;64.22;19.83;;;-1.50;99.90;;;;;;5042505;28;20039;-68
2023/11/30 07:42:38;;;;;;;66.60;21.25;;;-1.50;99.90;;;;;;5039992;28;20029;-68
2023/11/30 07:45:04;;;;;;;68.72;21.10;;;-1.50;99.90;;;;;;5042194;28;20017;-68
2023/11/30 07:47:30;;;;;;;61.38;20.42;;;-1.60;99.90;;;;;;5041846;28;20033;-68
2023/11/30 07:49:56;;;;;;;56.03;19.08;;;-1.60;99.90;;;;;;5038227;28;20091;-68
2023/11/30 07:52:21;;;;;;;60.55;19.58;;;-1.70;99.90;;;;;;5041590;28;20476;-69
2023/11/30 07:54:47;;;;;;;68.68;22.58;;;-1.70;99.90;;;;;;5038707;28;20032;-68
2023/11/30 07:57:13;;;;;;;67.82;21.73;;;-1.70;99.90;;;;;;5041699;28;20044;-68
2023/11/30 07:59:38;;;;;;;69.75;23.73;;;-1.70;99.90;;;;;;5034396;28;20527;-68
2023/11/30 08:02:08;;;;;;;71.03;22.17;;;-1.60;99.90;;;;;;5036149;28;20539;-67
2023/11/30 08:04:35;;;;;;;66.00;22.02;;;-1.60;99.90;;;;;;5030789;28;20034;-68
2023/11/30 08:07:01;;;;;;;73.50;23.42;;;-1.60;99.90;;;;;;5029718;28;20037;-68
2023/11/30 08:09:27;;;;;;;69.72;22.38;;;-1.50;99.90;;;;;;5023636;28;20038;-68
2023/11/30 08:11:52;;;;;;;71.25;23.67;;;-1.60;99.90;;;;;;5031701;28;20370;-68
2023/11/30 08:14:18;;;;;;;65.90;22.00;;;-1.60;99.90;;;;;;5031976;28;20399;-68
2023/11/30 08:16:43;;;;;;;60.80;20.77;;;-1.60;99.90;;;;;;5032638;28;20036;-68
2023/11/30 08:19:09;;;;;;;67.30;20.65;;;-1.70;99.90;;;;;;5036028;28;20061;-68
2023/11/30 08:21:40;;;;;;;57.65;20.20;;;-1.70;99.90;;;;;;5038493;28;20112;-68
2023/11/30 08:24:06;;;;;;;56.47;19.80;;;-1.70;99.90;;;;;;5033293;28;20029;-68
2023/11/30 08:26:32;;;;;;;55.92;19.25;;;-1.70;99.90;;;;;;5025823;28;20091;-68
2023/11/30 08:29:00;;;;;;;66.10;21.23;;;-1.70;99.90;;;;;;5030935;28;20026;-68
2023/11/30 08:31:25;;;;;;;65.22;22.88;;;-1.70;99.90;;;;;;5029895;28;20029;-68
2023/11/30 08:33:51;;;;;;;73.55;24.80;;;-1.60;99.90;;;;;;5031815;28;20105;-67
2023/11/30 08:36:16;;;;;;;61.75;22.50;;;-1.50;99.90;;;;;;5028044;28;20022;-68
2023/11/30 08:38:42;;;;;;;65.72;22.80;;;-1.50;99.90;;;;;;5027467;28;20029;-68
2023/11/30 08:41:08;;;;;;;69.85;23.05;;;-1.30;99.90;;;;;;5034764;28;20082;-68
2023/11/30 08:43:33;;;;;;;62.67;21.23;;;-1.30;99.90;;;;;;5026860;28;20025;-68
2023/11/30 08:45:59;;;;;;;61.85;22.55;;;-1.10;99.90;;;;;;5034175;28;20028;-68
2023/11/30 08:48:25;;;;;;;56.53;20.70;;;-1.00;99.90;;;;;;5033277;28;20029;-68
2023/11/30 08:50:51;;;;;;;52.78;19.60;;;-1.00;99.90;;;;;;5031777;28;20488;-68
2023/11/30 08:53:17;;;;;;;49.38;19.00;;;-0.80;99.90;;;;;;5033648;28;20084;-66
2023/11/30 08:55:45;;;;;;;46.03;17.90;;;-0.70;99.90;;;;;;5031776;28;20657;-66
2023/11/30 08:58:12;;;;;;;42.58;17.50;;;-0.30;99.90;;;;;;5025725;28;20048;-67
2023/11/30 09:00:39;;;;;;;35.15;16.27;;;0.20;99.90;;;;;;5031842;28;20029;-68
2023/11/30 09:03:06;;;;;;;33.22;14.68;;;0.90;99.90;;;;;;5031733;28;20151;-68
2023/11/30 09:05:32;;;;;;;30.65;13.07;;;1.50;99.90;;;;;;5027613;28;20025;-68
2023/11/30 09:07:57;;;;;;;35.60;14.23;;;2.00;99.90;;;;;;5036532;28;20040;-68
2023/11/30 09:10:23;;;;;;;40.58;16.02;;;2.40;99.90;;;;;;5037278;28;20071;-68
2023/11/30 09:12:48;;;;;;;41.00;16.38;;;2.80;99.90;;;;;;5032486;28;20484;-69
2023/11/30 09:15:14;;;;;;;36.55;15.57;;;3.30;99.90;;;;;;5030978;28;20029;-69
2023/11/30 09:17:40;;;;;;;24.58;12.40;;;3.70;99.90;;;;;;5035041;28;20080;-70
2023/11/30 09:20:09;;;;;;;26.92;12.18;;;4.30;99.90;;;;;;5031225;28;20456;-69
2023/11/30 09:22:35;;;;;;;24.92;12.00;;;4.60;99.90;;;;;;5032658;28;20021;-69
2023/11/30 09:25:03;;;;;;;25.55;11.32;;;4.60;99.90;;;;;;5037140;28;20029;-69
2023/11/30 09:27:29;;;;;;;24.83;12.13;;;4.40;99.90;;;;;;5031235;28;20036;-69
2023/11/30 09:29:58;;;;;;;24.05;11.52;;;4.50;99.90;;;;;;5030929;28;20022;-68
2023/11/30 09:32:24;;;;;;;27.92;12.38;;;4.70;99.90;;;;;;5032073;28;20045;-68
2023/11/30 09:34:49;;;;;;;26.58;13.18;;;5.20;99.90;;;;;;5034880;28;20522;-68
2023/11/30 09:37:15;;;;;;;26.05;11.93;;;5.50;99.90;;;;;;5026241;28;20056;-66
2023/11/30 09:39:41;;;;;;;42.95;17.58;;;5.10;99.90;;;;;;5029798;28;20079;-67
2023/11/30 09:42:15;;;;;;;37.08;16.20;;;5.00;99.90;;;;;;5026483;28;20029;-70
2023/11/30 09:44:44;;;;;;;36.15;16.30;;;5.40;99.90;;;;;;5033970;28;20087;-70
2023/11/30 09:47:10;;;;;;;26.90;12.00;;;6.00;99.90;;;;;;5035859;28;20025;-70
2023/11/30 09:49:37;;;;;;;23.45;11.05;;;6.40;99.90;;;;;;5028581;28;20028;-71
2023/11/30 09:52:03;;;;;;;22.55;10.48;;;6.90;99.90;;;;;;5033260;28;20088;-71
2023/11/30 09:54:29;;;;;;;25.67;11.63;;;7.40;99.90;;;;;;5026823;28;20069;-71
2023/11/30 09:56:55;;;;;;;25.35;12.57;;;8.00;99.90;;;;;;5028544;28;20653;-71
2023/11/30 09:59:20;;;;;;;20.92;10.82;;;8.40;99.90;;;;;;5029634;28;20029;-70
2023/11/30 10:01:48;;;;;;;22.13;11.00;;;8.70;99.90;;;;;;5038907;28;20128;-71
2023/11/30 10:04:15;;;;;;;20.17;9.35;;;9.10;99.90;;;;;;5029407;28;20079;-71
2023/11/30 10:06:44;;;;;;;19.95;9.85;;;9.30;99.90;;;;;;5036997;28;20124;-71
2023/11/30 10:09:13;;;;;;;17.40;9.93;;;9.60;99.90;;;;;;5027460;28;20032;-71
2023/11/30 10:11:40;;;;;;;19.42;8.25;;;9.60;99.90;;;;;;5034744;28;20377;-71
2023/11/30 10:14:07;;;;;;;17.17;8.52;;;9.40;99.90;;;;;;5037206;28;20022;-71
2023/11/30 10:16:34;;;;;;;17.45;8.32;;;9.30;99.90;;;;;;5035948;28;20029;-71
2023/11/30 10:19:01;;;;;;;18.90;9.15;;;8.90;99.90;;;;;;5032141;28;20112;-71
2023/11/30 10:21:26;;;;;;;17.17;8.68;;;9.10;99.90;;;;;;5026833;28;20167;-71
2023/11/30 10:23:52;;;;;;;15.60;7.68;;;9.20;99.90;;;;;;5029394;28;20484;-70
2023/11/30 10:26:17;;;;;;;17.05;8.40;;;8.70;99.10;;;;;;5034094;28;20080;-70
2023/11/30 10:28:44;;;;;;;17.15;8.00;;;8.20;99.90;;;;;;5035844;28;20084;-71
2023/11/30 10:31:14;;;;;;;20.98;8.55;;;8.00;99.90;;;;;;5031349;28;20064;-70
2023/11/30 10:33:44;;;;;;;18.27;8.70;;;8.00;99.90;;;;;;5029216;28;20037;-70
2023/11/30 10:36:11;;;;;;;19.83;8.98;;;8.10;99.90;;;;;;5037000;28;20041;-71
2023/11/30 10:38:41;;;;;;;17.95;8.68;;;7.70;99.90;;;;;;5034365;28;20372;-71
2023/11/30 10:41:12;;;;;;;17.38;8.02;;;7.30;99.90;;;;;;5038215;28;20033;-70
2023/11/30 10:43:44;;;;;;;17.52;8.32;;;7.50;99.90;;;;;;5033514;28;20076;-71
2023/11/30 10:46:13;;;;;;;18.02;8.68;;;9.20;99.90;;;;;;5030591;28;20033;-70
2023/11/30 10:48:39;;;;;;;17.15;8.75;;;9.20;99.90;;;;;;5033747;28;20948;-70
2023/11/30 10:51:07;;;;;;;17.38;8.43;;;9.10;98.70;;;;;;5034377;28;20040;-70
2023/11/30 10:53:53;;;;;;;16.42;8.45;;;8.90;99.90;;;;;;5033735;28;20044;-70
2023/11/30 10:56:19;;;;;;;16.42;8.30;;;9.00;99.80;;;;;;5035330;28;20037;-70
2023/11/30 10:58:47;;;;;;;16.75;7.93;;;9.20;99.90;;;;;;5034842;28;20040;-70
2023/11/30 11:01:15;;;;;;;17.20;8.32;;;9.80;99.90;;;;;;5030162;28;20400;-70
2023/11/30 11:03:48;;;;;;;16.75;8.73;;;10.10;99.30;;;;;;5021690;28;20049;-71
2023/11/30 11:06:16;;;;;;;14.75;7.75;;;10.30;92.90;;;;;;5032557;28;20033;-70
2023/11/30 11:09:02;;;;;;;15.27;7.35;;;9.70;95.70;;;;;;5031307;28;20518;-70
2023/11/30 11:11:30;;;;;;;13.65;6.75;;;9.10;98.80;;;;;;5029278;28;20720;-70
2023/11/30 11:13:56;;;;;;;15.38;7.20;;;9.50;97.60;;;;;;5032997;28;20110;-70
2023/11/30 11:16:42;;;;;;;14.80;6.75;;;9.50;98.50;;;;;;5041223;28;20119;-71
2023/11/30 11:19:09;;;;;;;16.00;6.95;;;9.90;99.90;;;;;;5032989;28;20060;-70
2023/11/30 11:21:39;;;;;;;15.57;7.80;;;10.40;97.70;;;;;;5032256;28;20196;-70
2023/11/30 11:24:07;;;;;;;15.07;7.25;;;10.00;97.90;;;;;;5037262;28;20025;-70
2023/11/30 11:26:49;;;;;;;15.43;7.72;;;9.70;97.50;;;;;;5034576;28;20113;-70
2023/11/30 11:29:15;;;;;;;15.18;6.97;;;10.00;97.30;;;;;;5040855;28;20029;-70
2023/11/30 11:31:42;;;;;;;14.50;7.43;;;10.30;96.70;;;;;;5039880;28;20029;-71
2023/11/30 11:34:08;;;;;;;14.20;6.80;;;10.80;95.80;;;;;;5045325;28;20768;-70
2023/11/30 11:36:38;;;;;;;14.20;7.53;;;10.90;97.70;;;;;;5036629;28;20061;-70
2023/11/30 11:39:04;;;;;;;14.32;7.07;;;10.80;96.60;;;;;;5036301;28;20065;-70
2023/11/30 11:41:31;;;;;;;16.13;7.43;;;11.10;93.20;;;;;;5035545;28;20441;-70
2023/11/30 11:43:57;;;;;;;14.35;6.93;;;11.40;93.50;;;;;;5038044;28;20025;-70
2023/11/30 11:46:23;;;;;;;15.37;7.47;;;12.30;90.30;;;;;;5037397;28;20049;-70
2023/11/30 11:48:48;;;;;;;14.07;7.15;;;12.40;90.60;;;;;;5037057;28;20135;-70
2023/11/30 11:51:14;;;;;;;15.73;7.45;;;12.70;85.70;;;;;;5038733;28;20146;-70
2023/11/30 11:53:40;;;;;;;14.48;7.30;;;12.10;79.30;;;;;;5022726;28;20376;-70
2023/11/30 11:56:10;;;;;;;19.13;9.05;;;11.60;88.00;;;;;;5033937;28;20056;-70
2023/11/30 11:58:36;;;;;;;19.20;8.20;;;11.50;83.50;;;;;;5029180;28;20034;-70
2023/11/30 12:01:02;;;;;;;15.30;7.38;;;11.20;92.10;;;;;;5035444;28;20025;-69
2023/11/30 12:03:28;;;;;;;16.65;8.20;;;11.30;88.50;;;;;;5035365;28;20025;-70
2023/11/30 12:05:53;;;;;;;13.90;7.35;;;11.20;85.90;;;;;;5036635;28;20025;-70
2023/11/30 12:08:34;;;;;;;13.77;7.18;;;11.40;88.60;;;;;;5028879;28;20036;-70
2023/11/30 12:11:04;;;;;;;16.45;7.93;;;11.30;85.10;;;;;;5036525;28;20353;-69
2023/11/30 12:13:37;;;;;;;15.77;7.35;;;11.40;90.70;;;;;;5037077;28;20028;-69
2023/11/30 12:16:04;;;;;;;14.20;7.07;;;11.60;88.80;;;;;;5033815;28;20034;-69
2023/11/30 12:18:32;;;;;;;16.80;7.93;;;11.80;85.30;;;;;;5034857;28;20030;-69
2023/11/30 12:20:58;;;;;;;16.38;6.88;;;12.00;84.70;;;;;;5030912;28;20022;-69
2023/11/30 12:23:24;;;;;;;14.55;7.13;;;12.20;88.50;;;;;;5031053;28;20112;-69
2023/11/30 12:25:50;;;;;;;17.95;6.93;;;12.60;84.60;;;;;;5029626;28;20100;-69
2023/11/30 12:28:16;;;;;;;13.95;7.07;;;13.10;77.90;;;;;;5034893;28;20450;-69